Time;durP1;ratioP1;P1;durP2;ratioP2;P2;SDS_P1;SDS_P2;PMS_P1;PMS_P2;Temp;Humidity;BMP_temperature;BMP_pressure;BME280_temperature;BME280_humidity;BME280_pressure;Samples;Min_cycle;Max_cycle;Signal;HPM_P1;HPM_P2
2021/03/03 00:02:00;;;;;;;18.65;8.23;;;5.70;99.90;;;;;;4922556;29;20032;-79
2021/03/03 00:04:26;;;;;;;23.83;8.98;;;5.60;99.90;;;;;;4925499;29;20401;-80
2021/03/03 00:06:52;;;;;;;27.30;10.38;;;5.70;99.90;;;;;;4917361;29;20024;-79
2021/03/03 00:09:17;;;;;;;18.63;7.70;;;5.60;99.90;;;;;;4926842;29;20088;-79
2021/03/03 00:11:45;;;;;;;26.27;9.77;;;5.60;99.90;;;;;;4918541;29;20036;-79
2021/03/03 00:14:14;;;;;;;18.15;9.55;;;5.60;99.90;;;;;;4920079;29;20437;-79
2021/03/03 00:16:40;;;;;;;27.80;8.68;;;5.50;99.90;;;;;;4909163;29;20036;-80
2021/03/03 00:19:06;;;;;;;29.35;9.88;;;5.40;99.90;;;;;;4911206;29;20029;-79
2021/03/03 00:21:32;;;;;;;16.98;7.50;;;5.40;99.90;;;;;;4910030;29;20128;-79
2021/03/03 00:23:58;;;;;;;19.20;9.10;;;5.40;99.90;;;;;;4908981;29;20140;-79
2021/03/03 00:26:27;;;;;;;26.65;8.88;;;5.30;99.90;;;;;;4925156;29;20032;-79
2021/03/03 00:28:57;;;;;;;23.50;9.68;;;5.30;99.90;;;;;;4910850;29;20025;-78
2021/03/03 00:31:23;;;;;;;22.27;9.43;;;5.30;99.90;;;;;;4924902;29;20024;-78
2021/03/03 00:33:48;;;;;;;23.48;8.65;;;5.20;99.90;;;;;;4924837;29;20505;-79
2021/03/03 00:36:14;;;;;;;20.30;9.27;;;5.20;99.90;;;;;;4924909;29;20115;-79
2021/03/03 00:38:40;;;;;;;27.50;9.50;;;5.20;99.90;;;;;;4910960;29;20153;-80
2021/03/03 00:41:08;;;;;;;21.80;9.88;;;5.20;99.90;;;;;;4920686;29;20063;-79
2021/03/03 00:43:34;;;;;;;21.27;9.00;;;5.10;99.90;;;;;;4927994;29;20087;-77
2021/03/03 00:46:01;;;;;;;20.13;8.27;;;5.10;99.90;;;;;;4924246;29;20119;-77
2021/03/03 00:48:26;;;;;;;31.80;10.68;;;5.10;99.90;;;;;;4922107;29;20469;-79
2021/03/03 00:50:52;;;;;;;22.77;9.38;;;5.10;99.90;;;;;;4910703;29;20097;-80
2021/03/03 00:53:18;;;;;;;19.52;8.50;;;5.00;99.90;;;;;;4924639;29;20028;-80
2021/03/03 00:55:50;;;;;;;25.60;10.30;;;5.10;99.90;;;;;;4910022;29;20456;-80
2021/03/03 00:58:15;;;;;;;20.77;8.18;;;5.00;99.90;;;;;;4909942;29;20044;-80
2021/03/03 01:00:41;;;;;;;28.50;9.77;;;5.10;99.90;;;;;;4924060;29;20537;-81
2021/03/03 01:03:07;;;;;;;22.23;8.15;;;5.00;99.90;;;;;;4909614;29;20053;-80
2021/03/03 01:05:32;;;;;;;23.10;9.00;;;5.00;99.90;;;;;;4908403;29;20548;-80
2021/03/03 01:07:58;;;;;;;23.23;10.00;;;5.00;99.90;;;;;;4908499;29;20037;-80
2021/03/03 01:10:24;;;;;;;22.80;9.32;;;5.10;99.90;;;;;;4909672;29;20025;-80
2021/03/03 01:12:52;;;;;;;26.70;9.48;;;5.20;99.90;;;;;;4924122;29;20043;-80
2021/03/03 01:15:18;;;;;;;21.25;9.05;;;5.20;99.90;;;;;;4924026;29;20025;-80
2021/03/03 01:17:44;;;;;;;19.60;8.50;;;5.10;99.90;;;;;;4910883;29;20039;-80
2021/03/03 01:20:10;;;;;;;24.38;9.00;;;5.10;99.90;;;;;;4918808;29;20116;-80
2021/03/03 01:22:36;;;;;;;23.60;9.45;;;5.10;99.90;;;;;;4909889;29;20033;-80
2021/03/03 01:25:03;;;;;;;29.77;10.80;;;5.00;99.90;;;;;;4907776;29;20048;-80
2021/03/03 01:27:28;;;;;;;25.73;9.27;;;5.00;99.90;;;;;;4908391;29;20067;-78
2021/03/03 01:29:54;;;;;;;23.80;8.35;;;4.90;99.90;;;;;;4908329;29;20607;-78
2021/03/03 01:32:22;;;;;;;26.20;9.77;;;4.90;99.90;;;;;;4909447;29;20052;-79
2021/03/03 01:34:48;;;;;;;24.27;9.23;;;4.80;99.90;;;;;;4909484;29;20084;-80
2021/03/03 01:37:13;;;;;;;22.17;8.45;;;4.80;99.90;;;;;;4908451;29;20494;-78
2021/03/03 01:39:39;;;;;;;23.63;9.23;;;4.80;99.90;;;;;;4909651;29;20033;-80
2021/03/03 01:42:04;;;;;;;23.75;9.73;;;4.70;99.90;;;;;;4914615;29;20028;-78
2021/03/03 01:44:39;;;;;;;34.88;10.57;;;4.70;99.90;;;;;;4924446;29;20099;-79
2021/03/03 01:47:05;;;;;;;24.05;7.85;;;4.60;99.90;;;;;;4920996;29;20035;-78
2021/03/03 01:49:31;;;;;;;30.88;9.75;;;4.60;99.90;;;;;;4925201;29;20024;-79
2021/03/03 01:51:56;;;;;;;21.52;9.10;;;4.70;99.90;;;;;;4912733;29;20033;-78
2021/03/03 01:54:22;;;;;;;16.30;7.97;;;4.60;99.90;;;;;;4907883;29;20127;-79
2021/03/03 01:56:54;;;;;;;22.33;8.50;;;4.60;99.90;;;;;;4918359;29;20025;-79
2021/03/03 01:59:20;;;;;;;27.45;9.18;;;4.50;99.90;;;;;;4924341;29;20088;-79
2021/03/03 02:01:46;;;;;;;22.92;9.13;;;4.50;99.90;;;;;;4927293;29;20036;-80
2021/03/03 02:04:12;;;;;;;26.83;9.77;;;4.40;99.90;;;;;;4927844;29;20056;-79
2021/03/03 02:06:56;;;;;;;20.52;8.82;;;4.40;99.90;;;;;;4926835;29;20115;-78
2021/03/03 02:09:36;;;;;;;17.92;9.93;;;4.30;99.90;;;;;;4926926;29;20028;-78
2021/03/03 02:12:31;;;;;;;23.23;9.02;;;4.30;99.90;;;;;;4926679;29;20396;-80
2021/03/03 02:14:59;;;;;;;25.67;10.57;;;4.30;99.90;;;;;;4922361;29;20060;-79
2021/03/03 02:17:28;;;;;;;20.33;7.65;;;4.30;99.90;;;;;;4918471;29;20401;-81
2021/03/03 02:20:00;;;;;;;24.00;8.63;;;4.20;99.90;;;;;;4909235;29;20059;-81
2021/03/03 02:22:29;;;;;;;25.17;9.02;;;4.20;99.90;;;;;;4923900;29;20025;-80
2021/03/03 02:25:05;;;;;;;24.80;9.48;;;4.20;99.90;;;;;;4923302;29;20100;-80
2021/03/03 02:27:31;;;;;;;21.35;8.00;;;4.20;99.90;;;;;;4923372;29;20033;-80
2021/03/03 02:30:02;;;;;;;27.05;9.18;;;4.20;99.90;;;;;;4908973;29;20135;-80
2021/03/03 02:32:28;;;;;;;22.25;8.38;;;4.20;99.90;;;;;;4926713;29;20414;-80
2021/03/03 02:34:54;;;;;;;23.58;9.40;;;4.20;99.90;;;;;;4926690;29;20024;-82
2021/03/03 02:37:20;;;;;;;31.70;9.68;;;4.20;99.90;;;;;;4926500;29;20048;-81
2021/03/03 02:39:47;;;;;;;22.00;8.30;;;4.10;99.90;;;;;;4927875;29;20020;-82
2021/03/03 02:42:13;;;;;;;19.45;8.68;;;4.10;99.90;;;;;;4928356;29;20035;-82
2021/03/03 02:44:41;;;;;;;24.48;10.15;;;4.00;99.90;;;;;;4926419;29;20362;-83
2021/03/03 02:47:07;;;;;;;20.10;9.50;;;4.00;99.90;;;;;;4923780;29;20044;-82
2021/03/03 02:49:33;;;;;;;19.75;8.90;;;3.90;99.90;;;;;;4926283;29;20039;-82
2021/03/03 02:51:59;;;;;;;30.92;8.20;;;3.90;99.90;;;;;;4926333;29;20039;-83
2021/03/03 02:54:24;;;;;;;19.17;8.52;;;3.80;99.90;;;;;;4926554;29;20024;-81
2021/03/03 02:56:50;;;;;;;28.05;9.55;;;3.80;99.90;;;;;;4909074;29;20028;-82
2021/03/03 02:59:22;;;;;;;19.30;8.07;;;3.70;99.90;;;;;;4923477;29;20530;-81
2021/03/03 03:01:52;;;;;;;19.92;8.60;;;3.70;99.90;;;;;;4924390;29;20032;-79
2021/03/03 03:04:19;;;;;;;32.60;11.30;;;3.60;99.90;;;;;;4912099;29;20474;-80
2021/03/03 03:06:47;;;;;;;24.30;9.40;;;3.60;99.90;;;;;;4912008;29;20053;-80
2021/03/03 03:09:16;;;;;;;26.98;9.95;;;3.60;99.90;;;;;;4912303;29;20035;-79
2021/03/03 03:11:48;;;;;;;20.95;7.97;;;3.60;99.90;;;;;;4926634;29;20033;-79
2021/03/03 03:14:18;;;;;;;20.33;9.70;;;3.70;99.90;;;;;;4911875;29;20047;-77
2021/03/03 03:16:46;;;;;;;27.35;7.95;;;3.70;99.90;;;;;;4926321;29;20060;-77
2021/03/03 03:19:16;;;;;;;20.38;6.78;;;3.70;99.90;;;;;;4912573;29;20025;-78
2021/03/03 03:21:48;;;;;;;30.42;9.57;;;3.70;99.90;;;;;;4926267;29;20036;-78
2021/03/03 03:24:18;;;;;;;19.00;7.70;;;3.70;99.90;;;;;;4925799;29;20032;-79
2021/03/03 03:26:45;;;;;;;15.40;7.60;;;3.60;99.90;;;;;;4926507;29;20134;-78
2021/03/03 03:29:11;;;;;;;31.88;10.90;;;3.50;99.90;;;;;;4911638;29;20036;-79
2021/03/03 03:31:38;;;;;;;29.58;9.18;;;3.50;99.90;;;;;;4926456;29;20024;-78
2021/03/03 03:34:09;;;;;;;21.92;8.50;;;3.40;99.90;;;;;;4912049;29;20039;-79
2021/03/03 03:36:36;;;;;;;31.67;11.02;;;3.30;99.90;;;;;;4926264;29;20063;-79
2021/03/03 03:39:06;;;;;;;24.63;9.20;;;3.40;99.90;;;;;;4925915;29;20108;-78
2021/03/03 03:41:33;;;;;;;23.30;8.32;;;3.30;99.90;;;;;;4926029;29;20371;-80
2021/03/03 03:43:59;;;;;;;20.52;7.80;;;3.20;99.90;;;;;;4926948;29;20035;-78
2021/03/03 03:46:26;;;;;;;26.13;7.15;;;3.20;99.90;;;;;;4929201;29;20393;-78
2021/03/03 03:48:52;;;;;;;22.27;7.13;;;3.20;99.90;;;;;;4926397;29;20033;-79
2021/03/03 03:51:18;;;;;;;20.45;8.77;;;3.10;99.90;;;;;;4911293;29;20049;-79
2021/03/03 03:53:44;;;;;;;25.13;8.98;;;3.10;99.90;;;;;;4925936;29;20029;-79
2021/03/03 03:56:10;;;;;;;14.93;7.25;;;3.10;99.90;;;;;;4925845;29;20033;-80
2021/03/03 03:58:39;;;;;;;19.27;8.02;;;3.00;99.90;;;;;;4925948;29;20048;-79
2021/03/03 04:01:05;;;;;;;17.38;7.07;;;3.00;99.90;;;;;;4925836;29;20033;-79
2021/03/03 04:03:32;;;;;;;20.55;7.93;;;3.00;99.90;;;;;;4909345;29;20048;-79
2021/03/03 04:05:59;;;;;;;19.50;7.35;;;3.10;99.90;;;;;;4921025;29;20071;-78
2021/03/03 04:08:25;;;;;;;11.82;5.32;;;3.10;99.90;;;;;;4928663;29;20079;-78
2021/03/03 04:10:50;;;;;;;13.88;6.68;;;3.10;99.90;;;;;;4928723;29;20453;-78
2021/03/03 04:13:16;;;;;;;24.58;8.13;;;3.10;99.90;;;;;;4929073;29;20038;-78
2021/03/03 04:15:42;;;;;;;24.35;6.18;;;3.10;99.90;;;;;;4928779;29;20028;-78
2021/03/03 04:18:08;;;;;;;13.98;5.40;;;3.10;99.90;;;;;;4928543;29;20048;-80
2021/03/03 04:20:34;;;;;;;19.52;5.38;;;3.10;99.90;;;;;;4928515;29;20038;-78
2021/03/03 04:22:59;;;;;;;12.82;5.70;;;3.00;99.90;;;;;;4929736;29;20119;-78
2021/03/03 04:25:25;;;;;;;12.30;7.30;;;3.00;99.90;;;;;;4929689;29;20024;-78
2021/03/03 04:27:50;;;;;;;16.20;6.47;;;3.00;99.90;;;;;;4928252;29;20500;-78
2021/03/03 04:30:17;;;;;;;30.45;6.72;;;2.90;99.90;;;;;;4928188;29;20056;-79
2021/03/03 04:32:43;;;;;;;11.23;4.40;;;2.80;99.90;;;;;;4928219;29;20030;-79
2021/03/03 04:35:10;;;;;;;9.77;4.85;;;2.80;99.90;;;;;;4928359;29;20099;-79
2021/03/03 04:37:37;;;;;;;20.00;6.35;;;2.70;99.90;;;;;;4928110;29;20124;-79
2021/03/03 04:40:09;;;;;;;38.88;7.10;;;2.70;99.90;;;;;;4928314;29;20115;-78
2021/03/03 04:42:45;;;;;;;15.68;4.97;;;2.80;99.90;;;;;;4925525;29;20024;-79
2021/03/03 04:45:11;;;;;;;13.65;5.18;;;2.80;99.90;;;;;;4928834;29;20465;-80
2021/03/03 04:47:39;;;;;;;21.67;5.68;;;2.70;99.90;;;;;;4929376;29;20055;-79
2021/03/03 04:50:06;;;;;;;10.32;5.25;;;2.70;99.90;;;;;;4927902;29;20032;-81
2021/03/03 04:52:32;;;;;;;25.23;5.25;;;2.60;99.90;;;;;;4925858;29;20031;-79
2021/03/03 04:54:58;;;;;;;11.25;4.13;;;2.60;99.90;;;;;;4927554;29;20039;-79
2021/03/03 04:57:24;;;;;;;11.63;5.47;;;2.60;99.90;;;;;;4927533;29;20044;-80
2021/03/03 04:59:49;;;;;;;8.60;5.00;;;2.50;99.90;;;;;;4928708;29;20036;-80
2021/03/03 05:02:18;;;;;;;14.50;5.57;;;2.50;99.90;;;;;;4926921;29;20052;-81
2021/03/03 05:04:44;;;;;;;10.90;4.78;;;2.40;99.90;;;;;;4928744;29;20040;-81
2021/03/03 05:07:11;;;;;;;8.07;4.60;;;2.40;99.90;;;;;;4927769;29;20465;-79
2021/03/03 05:09:36;;;;;;;8.48;4.25;;;2.40;99.90;;;;;;4927641;29;20032;-80
2021/03/03 05:12:03;;;;;;;10.88;5.18;;;2.40;99.90;;;;;;4927202;29;20028;-79
2021/03/03 05:14:28;;;;;;;21.05;6.30;;;2.30;99.90;;;;;;4927542;29;20056;-79
2021/03/03 05:16:54;;;;;;;12.70;4.93;;;2.30;99.90;;;;;;4928836;29;20032;-78
2021/03/03 05:19:19;;;;;;;11.02;4.97;;;2.30;99.90;;;;;;4927193;29;20036;-78
2021/03/03 05:21:45;;;;;;;8.77;4.75;;;2.30;99.90;;;;;;4927180;29;20032;-80
2021/03/03 05:24:11;;;;;;;16.83;7.65;;;2.30;99.90;;;;;;4927365;29;20499;-79
2021/03/03 05:26:38;;;;;;;13.02;5.65;;;2.30;99.90;;;;;;4926686;29;20043;-79
2021/03/03 05:29:03;;;;;;;20.75;5.18;;;2.30;99.90;;;;;;4927879;29;20106;-79
2021/03/03 05:31:29;;;;;;;10.07;4.53;;;2.30;99.90;;;;;;4921578;29;20064;-78
2021/03/03 05:33:55;;;;;;;13.02;5.75;;;2.30;99.90;;;;;;4910656;29;20107;-78
2021/03/03 05:36:20;;;;;;;10.13;4.90;;;2.20;99.90;;;;;;4927012;29;20029;-77
2021/03/03 05:38:47;;;;;;;10.13;5.60;;;2.20;99.90;;;;;;4928010;29;20086;-78
2021/03/03 05:41:13;;;;;;;14.95;5.50;;;2.30;99.90;;;;;;4927272;29;20032;-78
2021/03/03 05:43:39;;;;;;;16.65;5.93;;;2.30;99.90;;;;;;4928673;29;20032;-78
2021/03/03 05:46:05;;;;;;;15.77;4.60;;;2.30;99.90;;;;;;4928409;29;20032;-77
2021/03/03 05:48:43;;;;;;;14.48;5.25;;;2.30;99.90;;;;;;4920691;29;20060;-77
2021/03/03 05:51:09;;;;;;;8.48;4.07;;;2.30;99.90;;;;;;4924002;29;20020;-79
2021/03/03 05:53:36;;;;;;;8.80;5.05;;;2.30;99.90;;;;;;4924108;29;20079;-78
2021/03/03 05:56:10;;;;;;;15.98;6.28;;;2.30;99.90;;;;;;4909331;29;20039;-80
2021/03/03 05:58:37;;;;;;;8.38;4.68;;;2.30;99.90;;;;;;4923824;29;20065;-79
2021/03/03 06:01:05;;;;;;;15.75;5.30;;;2.20;99.90;;;;;;4908047;29;20043;-81
2021/03/03 06:03:31;;;;;;;8.77;3.65;;;2.30;99.90;;;;;;4923436;29;20048;-79
2021/03/03 06:05:57;;;;;;;13.10;5.28;;;2.30;99.90;;;;;;4908025;29;20048;-79
2021/03/03 06:08:25;;;;;;;8.48;5.18;;;2.30;99.90;;;;;;4909337;29;20028;-79
2021/03/03 06:10:51;;;;;;;25.40;5.00;;;2.40;99.90;;;;;;4909548;29;20088;-78
2021/03/03 06:13:17;;;;;;;10.48;4.50;;;2.40;99.90;;;;;;4923841;29;20048;-79
2021/03/03 06:15:43;;;;;;;19.33;7.13;;;2.40;99.90;;;;;;4923987;29;20061;-78
2021/03/03 06:18:12;;;;;;;9.70;5.10;;;2.40;99.90;;;;;;4924212;29;20494;-79
2021/03/03 06:20:44;;;;;;;11.23;5.28;;;2.30;99.90;;;;;;4924026;29;20063;-78
2021/03/03 06:23:18;;;;;;;12.77;4.95;;;2.30;99.90;;;;;;4909831;29;20052;-80
2021/03/03 06:25:44;;;;;;;15.98;6.13;;;2.40;99.90;;;;;;4924431;29;20037;-80
2021/03/03 06:28:11;;;;;;;13.93;5.10;;;2.40;99.90;;;;;;4924364;29;20029;-80
2021/03/03 06:30:37;;;;;;;10.50;4.82;;;2.40;99.90;;;;;;4924449;29;20048;-78
2021/03/03 06:33:08;;;;;;;9.68;5.65;;;2.40;99.90;;;;;;4925223;29;20028;-79
2021/03/03 06:35:47;;;;;;;10.35;4.40;;;2.30;99.90;;;;;;4927015;29;20126;-77
2021/03/03 06:38:24;;;;;;;10.95;4.47;;;2.30;99.90;;;;;;4928241;29;20051;-80
2021/03/03 06:40:59;;;;;;;24.90;5.07;;;2.20;99.90;;;;;;4931783;29;20043;-81
2021/03/03 06:43:29;;;;;;;14.00;4.85;;;2.20;99.90;;;;;;4928532;29;20031;-82
2021/03/03 06:45:57;;;;;;;12.07;4.50;;;2.20;99.90;;;;;;4928543;29;20119;-81
2021/03/03 06:48:42;;;;;;;10.55;4.38;;;2.20;99.90;;;;;;4912507;29;20039;-82
2021/03/03 06:51:26;;;;;;;9.05;4.43;;;2.20;99.90;;;;;;4912212;29;20478;-81
2021/03/03 06:53:53;;;;;;;10.10;4.68;;;2.20;99.90;;;;;;4928175;29;20438;-82
2021/03/03 06:56:37;;;;;;;9.85;4.85;;;2.20;99.90;;;;;;4928147;29;20033;-82
2021/03/03 06:59:10;;;;;;;8.55;4.47;;;2.20;99.90;;;;;;4919977;29;20037;-83
2021/03/03 07:01:37;;;;;;;7.90;3.90;;;2.20;99.90;;;;;;4927868;29;20036;-80
2021/03/03 07:04:03;;;;;;;13.05;4.25;;;2.30;99.90;;;;;;4912754;29;20061;-80
2021/03/03 07:06:32;;;;;;;7.07;3.85;;;2.30;99.90;;;;;;4911961;29;20118;-82
2021/03/03 07:08:59;;;;;;;6.70;4.38;;;2.40;99.90;;;;;;4924285;29;20044;-82
2021/03/03 07:11:29;;;;;;;9.27;4.38;;;2.50;99.90;;;;;;4925991;29;20040;-82
2021/03/03 07:13:55;;;;;;;7.75;4.03;;;2.50;99.90;;;;;;4927005;29;20170;-80
2021/03/03 07:16:21;;;;;;;18.30;4.72;;;2.70;99.90;;;;;;4927468;29;20056;-78
2021/03/03 07:18:47;;;;;;;9.48;4.10;;;2.80;99.90;;;;;;4925365;29;20043;-80
2021/03/03 07:21:13;;;;;;;8.38;3.95;;;2.90;99.90;;;;;;4925153;29;20066;-79
2021/03/03 07:23:49;;;;;;;7.22;3.15;;;3.00;99.90;;;;;;4915441;29;20407;-80
2021/03/03 07:26:17;;;;;;;7.45;3.30;;;3.10;99.90;;;;;;4930613;29;20408;-79
2021/03/03 07:28:44;;;;;;;9.95;4.60;;;3.20;99.90;;;;;;4930162;29;20032;-78
2021/03/03 07:31:12;;;;;;;6.80;4.05;;;3.30;99.90;;;;;;4922112;29;20447;-79
2021/03/03 07:33:38;;;;;;;13.00;4.80;;;3.30;99.90;;;;;;4926902;29;20029;-78
2021/03/03 07:36:07;;;;;;;19.70;5.97;;;3.40;99.90;;;;;;4912616;29;20032;-80
2021/03/03 07:38:43;;;;;;;22.60;7.63;;;3.50;99.90;;;;;;4910094;29;20051;-78
2021/03/03 07:41:13;;;;;;;12.70;4.97;;;3.60;99.90;;;;;;4926604;29;20039;-78
2021/03/03 07:43:44;;;;;;;10.35;4.75;;;3.80;99.90;;;;;;4913429;29;20036;-79
2021/03/03 07:46:11;;;;;;;12.05;5.03;;;3.90;99.90;;;;;;4912864;29;20517;-80
2021/03/03 07:48:42;;;;;;;20.80;5.50;;;4.10;99.90;;;;;;4910782;29;20044;-79
2021/03/03 07:51:08;;;;;;;10.68;5.38;;;4.30;99.90;;;;;;4913518;29;20025;-79
2021/03/03 07:53:39;;;;;;;14.15;6.95;;;4.50;99.90;;;;;;4912035;29;20474;-79
2021/03/03 07:56:07;;;;;;;15.35;6.70;;;4.70;99.90;;;;;;4912854;29;20025;-79
2021/03/03 07:58:35;;;;;;;16.75;7.90;;;4.90;99.90;;;;;;4911286;29;20087;-79
2021/03/03 08:01:02;;;;;;;16.48;6.78;;;5.10;99.90;;;;;;4912386;29;20033;-79
2021/03/03 08:03:47;;;;;;;17.50;7.45;;;5.30;99.90;;;;;;4926118;29;20056;-78
2021/03/03 08:06:39;;;;;;;14.63;6.93;;;5.50;99.90;;;;;;4926552;29;20039;-79
2021/03/03 08:09:05;;;;;;;13.15;5.47;;;5.70;99.90;;;;;;4910470;29;20033;-79
2021/03/03 08:11:32;;;;;;;10.90;5.85;;;6.00;99.90;;;;;;4910611;29;20053;-78
2021/03/03 08:13:58;;;;;;;16.42;6.32;;;6.10;99.90;;;;;;4910262;29;20268;-79
2021/03/03 08:16:23;;;;;;;20.30;7.13;;;6.30;99.90;;;;;;4910556;29;20147;-78
2021/03/03 08:18:49;;;;;;;12.15;5.80;;;6.40;99.90;;;;;;4910419;29;20089;-79
2021/03/03 08:21:18;;;;;;;12.02;5.22;;;6.70;99.90;;;;;;4909511;29;20038;-78
2021/03/03 08:23:51;;;;;;;11.88;5.85;;;6.80;99.90;;;;;;4930560;29;20042;-80
2021/03/03 08:26:16;;;;;;;15.43;6.35;;;7.00;99.90;;;;;;4932255;28;20043;-80
2021/03/03 08:28:50;;;;;;;12.18;5.30;;;7.20;99.90;;;;;;4907754;29;20029;-80
2021/03/03 08:31:17;;;;;;;14.20;6.50;;;7.40;99.90;;;;;;4924978;29;20525;-78
2021/03/03 08:33:56;;;;;;;9.55;4.78;;;7.60;99.90;;;;;;4909637;29;20029;-78
2021/03/03 08:36:22;;;;;;;13.65;5.53;;;7.80;99.90;;;;;;4925618;29;20039;-79
2021/03/03 08:39:09;;;;;;;12.10;6.28;;;7.90;99.90;;;;;;4910993;29;20117;-79
2021/03/03 08:41:37;;;;;;;9.80;4.70;;;8.00;99.90;;;;;;4911509;29;20462;-78
2021/03/03 08:44:15;;;;;;;12.90;5.47;;;8.10;99.90;;;;;;4925481;29;20052;-79
2021/03/03 08:46:49;;;;;;;14.00;6.03;;;8.20;99.90;;;;;;4922012;29;20108;-81
2021/03/03 08:49:15;;;;;;;12.43;6.45;;;8.30;99.90;;;;;;4916799;29;20039;-80
2021/03/03 08:51:49;;;;;;;13.27;5.70;;;8.50;99.90;;;;;;4960189;28;20032;-80
2021/03/03 08:54:21;;;;;;;11.98;5.80;;;8.60;99.90;;;;;;4923462;29;20047;-81
2021/03/03 08:56:48;;;;;;;9.73;4.70;;;8.70;99.90;;;;;;4921561;29;20032;-80
2021/03/03 08:59:29;;;;;;;10.18;5.78;;;8.80;99.90;;;;;;4929020;29;20043;-83
2021/03/03 09:02:00;;;;;;;15.50;6.20;;;8.90;99.90;;;;;;4920542;29;20042;-80
2021/03/03 09:04:28;;;;;;;10.80;5.07;;;9.10;99.90;;;;;;4929328;29;20099;-79
2021/03/03 09:07:00;;;;;;;15.02;6.57;;;9.10;99.90;;;;;;4929305;29;20029;-79
2021/03/03 09:09:28;;;;;;;10.93;5.72;;;9.20;99.90;;;;;;4924359;29;20029;-80
2021/03/03 09:12:02;;;;;;;28.13;7.32;;;9.40;99.90;;;;;;4925149;29;20044;-81
2021/03/03 09:14:28;;;;;;;15.23;5.80;;;9.60;99.90;;;;;;4923999;29;20028;-80
2021/03/03 09:16:58;;;;;;;13.60;5.75;;;9.80;99.90;;;;;;4924751;29;20043;-80
2021/03/03 09:19:25;;;;;;;11.30;5.60;;;10.00;99.90;;;;;;4910473;29;20032;-80
2021/03/03 09:21:52;;;;;;;14.38;6.35;;;10.20;99.90;;;;;;4924197;29;20032;-80
2021/03/03 09:24:19;;;;;;;15.27;7.00;;;10.40;99.90;;;;;;4913399;29;20079;-82
2021/03/03 09:26:45;;;;;;;15.20;6.13;;;10.60;99.90;;;;;;4927903;29;20181;-80
2021/03/03 09:29:34;;;;;;;9.68;5.28;;;10.80;99.90;;;;;;4923944;29;20040;-79
2021/03/03 09:32:12;;;;;;;14.15;6.45;;;11.00;99.90;;;;;;4926282;29;20509;-81
2021/03/03 09:34:52;;;;;;;12.10;6.05;;;11.30;99.90;;;;;;4914808;29;20032;-79
2021/03/03 09:37:19;;;;;;;11.15;6.30;;;11.40;99.90;;;;;;4929121;29;20028;-79
2021/03/03 09:39:56;;;;;;;13.75;5.82;;;11.60;99.90;;;;;;4928206;29;20034;-79
2021/03/03 09:42:22;;;;;;;14.10;5.72;;;11.80;99.90;;;;;;4928953;29;20024;-78
2021/03/03 09:44:52;;;;;;;12.07;6.18;;;11.90;99.90;;;;;;4924392;29;20111;-79
2021/03/03 09:47:36;;;;;;;11.13;5.97;;;12.00;99.90;;;;;;4919992;29;20040;-79
2021/03/03 09:50:05;;;;;;;;;;;12.20;99.90;;;;;;4914023;29;20027;-78
2021/03/03 09:52:33;;;;;;;13.45;6.78;;;12.30;99.90;;;;;;4923739;29;20003;-78
2021/03/03 09:55:03;;;;;;;15.95;6.18;;;12.50;99.90;;;;;;4912799;29;20028;-79
2021/03/03 09:57:35;;;;;;;11.20;6.00;;;12.70;99.90;;;;;;4927966;29;20100;-77
2021/03/03 10:00:03;;;;;;;15.70;6.68;;;12.80;99.90;;;;;;4921320;29;20124;-79
2021/03/03 10:02:29;;;;;;;19.73;7.38;;;13.00;99.90;;;;;;4907364;29;20162;-81
2021/03/03 10:04:58;;;;;;;12.05;6.45;;;13.20;99.90;;;;;;4908896;29;20028;-79
2021/03/03 10:07:35;;;;;;;17.83;7.13;;;13.30;99.90;;;;;;4908185;29;20052;-79
2021/03/03 10:10:01;;;;;;;24.63;7.22;;;13.50;99.90;;;;;;4908173;29;20033;-79
2021/03/03 10:12:37;;;;;;;16.17;7.72;;;13.60;99.90;;;;;;4910770;29;20049;-78
2021/03/03 10:15:08;;;;;;;17.80;8.00;;;13.60;99.90;;;;;;4913545;29;20035;-81
2021/03/03 10:17:39;;;;;;;27.63;8.10;;;13.40;99.90;;;;;;4912579;29;20073;-79
2021/03/03 10:20:30;;;;;;;19.80;8.20;;;13.20;99.90;;;;;;4914348;29;20033;-77
2021/03/03 10:22:57;;;;;;;18.58;8.43;;;12.90;99.90;;;;;;4911080;29;20063;-78
2021/03/03 10:25:53;;;;;;;16.67;7.18;;;12.60;99.90;;;;;;4911824;29;20025;-77
2021/03/03 10:28:19;;;;;;;17.67;7.13;;;12.50;99.90;;;;;;4913289;29;20040;-78
2021/03/03 10:30:50;;;;;;;23.15;7.90;;;12.40;99.90;;;;;;4913905;29;20020;-78
2021/03/03 10:33:31;;;;;;;16.65;7.35;;;12.30;99.90;;;;;;4912276;29;20112;-79
2021/03/03 10:36:09;;;;;;;15.65;8.02;;;12.30;99.90;;;;;;4913690;29;20044;-78
2021/03/03 10:38:43;;;;;;;20.60;8.63;;;12.40;99.90;;;;;;4913428;29;20043;-79
2021/03/03 10:41:19;;;;;;;19.77;8.10;;;12.50;99.90;;;;;;4912378;29;20025;-78
2021/03/03 10:43:49;;;;;;;22.17;8.48;;;12.70;99.90;;;;;;4915998;29;20115;-78
2021/03/03 10:46:20;;;;;;;19.90;7.90;;;12.80;99.90;;;;;;4927143;29;20040;-78
2021/03/03 10:48:46;;;;;;;16.80;7.32;;;13.00;99.90;;;;;;4927641;29;20029;-79
2021/03/03 10:51:15;;;;;;;17.08;7.70;;;13.20;99.90;;;;;;4912969;29;20032;-79
2021/03/03 10:53:55;;;;;;;23.25;9.05;;;13.60;99.90;;;;;;4923379;29;20028;-79
2021/03/03 10:56:24;;;;;;;16.02;8.40;;;13.90;99.90;;;;;;4930627;29;20115;-78
2021/03/03 10:58:50;;;;;;;19.60;8.30;;;14.50;99.90;;;;;;4929160;29;20438;-79
2021/03/03 11:01:18;;;;;;;19.83;9.00;;;14.80;99.90;;;;;;4929456;29;20028;-79
2021/03/03 11:04:02;;;;;;;19.63;8.75;;;15.20;99.90;;;;;;4930929;29;20080;-78
2021/03/03 11:06:29;;;;;;;18.67;8.35;;;15.50;99.90;;;;;;4931408;29;20490;-77
2021/03/03 11:08:56;;;;;;;17.10;8.43;;;15.80;99.90;;;;;;4931807;29;20088;-77
2021/03/03 11:11:22;;;;;;;18.27;8.45;;;16.10;99.90;;;;;;4932006;29;20020;-79
2021/03/03 11:13:47;;;;;;;21.05;8.50;;;16.30;99.90;;;;;;4932103;29;20053;-80
2021/03/03 11:16:14;;;;;;;19.00;8.23;;;16.20;99.90;;;;;;4927225;29;20033;-78
2021/03/03 11:18:41;;;;;;;17.80;8.57;;;15.90;99.90;;;;;;4926760;29;20049;-79
2021/03/03 11:21:08;;;;;;;18.30;8.93;;;15.80;99.90;;;;;;4927201;29;20104;-78
2021/03/03 11:23:34;;;;;;;22.67;9.35;;;15.80;99.90;;;;;;4926778;29;20037;-79
2021/03/03 11:26:00;;;;;;;21.92;8.88;;;16.00;99.90;;;;;;4912060;29;20421;-79
2021/03/03 11:28:25;;;;;;;18.98;8.45;;;16.00;99.90;;;;;;4926898;29;20029;-79
2021/03/03 11:30:52;;;;;;;18.23;8.05;;;16.10;99.90;;;;;;4926446;29;20036;-78
2021/03/03 11:33:18;;;;;;;23.90;7.97;;;16.20;99.90;;;;;;4926492;29;20029;-79
2021/03/03 11:35:43;;;;;;;18.92;9.38;;;16.40;99.90;;;;;;4911463;29;20040;-81
2021/03/03 11:38:12;;;;;;;22.42;9.63;;;16.70;99.90;;;;;;4925987;29;20044;-79
2021/03/03 11:40:38;;;;;;;22.48;9.27;;;16.80;99.90;;;;;;4910392;29;20104;-81
2021/03/03 11:43:04;;;;;;;22.25;9.38;;;16.90;99.90;;;;;;4926269;29;20059;-78
2021/03/03 11:45:30;;;;;;;21.95;9.35;;;17.00;99.90;;;;;;4925963;29;20040;-78
2021/03/03 11:47:56;;;;;;;19.13;9.82;;;17.20;99.90;;;;;;4925048;29;20039;-79
2021/03/03 11:50:21;;;;;;;20.80;9.23;;;17.40;99.90;;;;;;4925050;29;20033;-78
2021/03/03 11:52:47;;;;;;;16.83;8.65;;;17.60;99.90;;;;;;4925395;29;20056;-80
2021/03/03 11:55:13;;;;;;;23.33;11.07;;;18.00;99.90;;;;;;4909942;29;20028;-80
2021/03/03 11:57:39;;;;;;;19.95;9.75;;;18.20;99.90;;;;;;4910338;29;20044;-78
2021/03/03 12:00:10;;;;;;;21.25;9.25;;;18.20;99.90;;;;;;4925923;29;20025;-79
2021/03/03 12:02:38;;;;;;;20.10;9.80;;;17.90;99.90;;;;;;4925670;29;20064;-79
2021/03/03 12:05:05;;;;;;;21.38;9.38;;;17.90;99.90;;;;;;4910629;29;20056;-79
2021/03/03 12:07:31;;;;;;;25.33;9.63;;;17.90;99.90;;;;;;4909954;29;20025;-77
2021/03/03 12:09:56;;;;;;;23.33;10.52;;;17.80;99.90;;;;;;4910833;29;20033;-79
2021/03/03 12:12:22;;;;;;;20.20;9.60;;;17.80;99.90;;;;;;4909563;29;20056;-80
2021/03/03 12:14:48;;;;;;;18.83;9.38;;;17.90;99.90;;;;;;4925307;29;20048;-81
2021/03/03 12:17:14;;;;;;;26.77;8.27;;;18.30;99.90;;;;;;4910834;29;20187;-77
2021/03/03 12:19:39;;;;;;;24.52;10.10;;;18.60;99.90;;;;;;4911697;29;20040;-81
2021/03/03 12:22:05;;;;;;;23.10;10.35;;;18.70;99.90;;;;;;4909453;29;20029;-80
2021/03/03 12:24:31;;;;;;;24.15;9.57;;;18.70;99.90;;;;;;4911015;29;20047;-79
2021/03/03 12:26:59;;;;;;;21.40;10.07;;;18.60;99.90;;;;;;4928038;29;20032;-80
2021/03/03 12:29:34;;;;;;;17.33;9.00;;;18.60;99.90;;;;;;4928721;29;20482;-81
2021/03/03 12:32:00;;;;;;;24.83;10.18;;;18.70;99.90;;;;;;4929739;29;20040;-79
2021/03/03 12:34:26;;;;;;;26.40;9.95;;;18.60;99.90;;;;;;4919411;29;20110;-79
2021/03/03 12:36:51;;;;;;;21.50;9.88;;;18.40;99.90;;;;;;4926842;29;20088;-78
2021/03/03 12:39:17;;;;;;;22.95;10.85;;;18.50;99.90;;;;;;4926918;29;20533;-79
2021/03/03 12:41:43;;;;;;;23.50;11.10;;;18.50;99.90;;;;;;4927445;29;20470;-78
2021/03/03 12:44:08;;;;;;;20.85;10.27;;;18.50;99.90;;;;;;4927875;29;20032;-79
2021/03/03 12:46:34;;;;;;;22.88;10.68;;;18.50;99.90;;;;;;4924653;29;20067;-79
2021/03/03 12:49:00;;;;;;;25.13;10.52;;;18.30;99.90;;;;;;4908986;29;20024;-80
2021/03/03 12:51:25;;;;;;;28.50;9.70;;;18.40;99.90;;;;;;4910340;29;20123;-79
2021/03/03 12:53:51;;;;;;;22.30;9.93;;;18.50;99.90;;;;;;4910012;29;20040;-79